sensor_id;sensor_type;location;lat;lon;timestamp;P1;durP1;ratioP1;P2;durP2;ratioP2
76788;SDS011;65740;52.464;13.446;2023-02-01T00:01:41;3.87;;;3.03;;
76788;SDS011;65740;52.464;13.446;2023-02-01T00:04:07;2.83;;;2.53;;
76788;SDS011;65740;52.464;13.446;2023-02-01T00:06:32;3.67;;;2.80;;
76788;SDS011;65740;52.464;13.446;2023-02-01T00:08:58;2.50;;;2.30;;
76788;SDS011;65740;52.464;13.446;2023-02-01T00:11:24;2.60;;;2.40;;
76788;SDS011;65740;52.464;13.446;2023-02-01T00:13:50;2.90;;;2.50;;
76788;SDS011;65740;52.464;13.446;2023-02-01T00:16:17;2.90;;;2.70;;
76788;SDS011;65740;52.464;13.446;2023-02-01T00:18:44;3.07;;;2.87;;
76788;SDS011;65740;52.464;13.446;2023-02-01T00:21:11;2.63;;;2.47;;
76788;SDS011;65740;52.464;13.446;2023-02-01T00:23:41;2.60;;;2.40;;
76788;SDS011;65740;52.464;13.446;2023-02-01T00:26:10;2.57;;;2.47;;
76788;SDS011;65740;52.464;13.446;2023-02-01T00:28:39;2.97;;;2.77;;
76788;SDS011;65740;52.464;13.446;2023-02-01T00:31:05;3.00;;;2.70;;
76788;SDS011;65740;52.464;13.446;2023-02-01T00:33:31;2.60;;;2.40;;
76788;SDS011;65740;52.464;13.446;2023-02-01T00:36:01;2.70;;;2.50;;
76788;SDS011;65740;52.464;13.446;2023-02-01T00:38:29;2.70;;;2.53;;
76788;SDS011;65740;52.464;13.446;2023-02-01T00:41:01;3.30;;;2.63;;
76788;SDS011;65740;52.464;13.446;2023-02-01T00:43:28;2.70;;;2.50;;
76788;SDS011;65740;52.464;13.446;2023-02-01T00:45:55;2.73;;;2.53;;
76788;SDS011;65740;52.464;13.446;2023-02-01T00:48:20;3.10;;;2.70;;
76788;SDS011;65740;52.464;13.446;2023-02-01T00:50:46;4.00;;;2.83;;
76788;SDS011;65740;52.464;13.446;2023-02-01T00:53:11;2.50;;;2.40;;
76788;SDS011;65740;52.464;13.446;2023-02-01T00:55:37;3.30;;;2.70;;
76788;SDS011;65740;52.464;13.446;2023-02-01T00:58:03;3.40;;;2.40;;
76788;SDS011;65740;52.464;13.446;2023-02-01T01:00:30;2.90;;;2.70;;
76788;SDS011;65740;52.464;13.446;2023-02-01T01:02:57;3.00;;;2.80;;
76788;SDS011;65740;52.464;13.446;2023-02-01T01:05:22;3.00;;;2.70;;
76788;SDS011;65740;52.464;13.446;2023-02-01T01:07:48;2.80;;;2.60;;
76788;SDS011;65740;52.464;13.446;2023-02-01T01:10:14;2.90;;;2.70;;
76788;SDS011;65740;52.464;13.446;2023-02-01T01:12:40;3.40;;;3.03;;
76788;SDS011;65740;52.464;13.446;2023-02-01T01:15:06;2.60;;;2.40;;
76788;SDS011;65740;52.464;13.446;2023-02-01T01:17:32;2.57;;;2.43;;
76788;SDS011;65740;52.464;13.446;2023-02-01T01:19:58;4.17;;;3.17;;
76788;SDS011;65740;52.464;13.446;2023-02-01T01:22:24;2.80;;;2.60;;
76788;SDS011;65740;52.464;13.446;2023-02-01T01:24:49;3.90;;;2.90;;
76788;SDS011;65740;52.464;13.446;2023-02-01T01:27:15;3.43;;;3.13;;
76788;SDS011;65740;52.464;13.446;2023-02-01T01:29:40;2.80;;;2.60;;
76788;SDS011;65740;52.464;13.446;2023-02-01T01:32:06;2.70;;;2.60;;
76788;SDS011;65740;52.464;13.446;2023-02-01T01:34:32;3.00;;;2.80;;
76788;SDS011;65740;52.464;13.446;2023-02-01T01:36:57;2.80;;;2.60;;
76788;SDS011;65740;52.464;13.446;2023-02-01T01:39:23;2.80;;;2.70;;
76788;SDS011;65740;52.464;13.446;2023-02-01T01:41:48;2.83;;;2.50;;
76788;SDS011;65740;52.464;13.446;2023-02-01T01:47:17;3.27;;;2.97;;
76788;SDS011;65740;52.464;13.446;2023-02-01T01:49:42;3.13;;;2.93;;
76788;SDS011;65740;52.464;13.446;2023-02-01T01:52:09;3.30;;;2.63;;
76788;SDS011;65740;52.464;13.446;2023-02-01T01:54:37;3.37;;;3.00;;
76788;SDS011;65740;52.464;13.446;2023-02-01T01:57:09;2.90;;;2.60;;
76788;SDS011;65740;52.464;13.446;2023-02-01T01:59:40;2.70;;;2.50;;
76788;SDS011;65740;52.464;13.446;2023-02-01T02:02:10;2.50;;;2.30;;
76788;SDS011;65740;52.464;13.446;2023-02-01T02:04:36;3.07;;;2.77;;
76788;SDS011;65740;52.464;13.446;2023-02-01T02:07:08;3.50;;;3.20;;
76788;SDS011;65740;52.464;13.446;2023-02-01T02:09:44;2.80;;;2.60;;
76788;SDS011;65740;52.464;13.446;2023-02-01T02:12:09;2.43;;;2.23;;
76788;SDS011;65740;52.464;13.446;2023-02-01T02:14:35;3.10;;;2.73;;
76788;SDS011;65740;52.464;13.446;2023-02-01T02:17:18;2.60;;;2.40;;
76788;SDS011;65740;52.464;13.446;2023-02-01T02:48:16;3.27;;;2.97;;
76788;SDS011;65740;52.464;13.446;2023-02-01T02:50:57;3.00;;;2.80;;
76788;SDS011;65740;52.464;13.446;2023-02-01T02:56:49;2.63;;;2.43;;
76788;SDS011;65740;52.464;13.446;2023-02-01T02:59:35;3.10;;;2.20;;
76788;SDS011;65740;52.464;13.446;2023-02-01T03:02:21;2.20;;;2.10;;
76788;SDS011;65740;52.464;13.446;2023-02-01T03:05:06;3.00;;;2.43;;
76788;SDS011;65740;52.464;13.446;2023-02-01T03:10:55;3.17;;;2.97;;
76788;SDS011;65740;52.464;13.446;2023-02-01T03:13:08;2.90;;;2.70;;
76788;SDS011;65740;52.464;13.446;2023-02-01T03:15:51;2.87;;;2.67;;
76788;SDS011;65740;52.464;13.446;2023-02-01T03:18:35;2.73;;;2.53;;
76788;SDS011;65740;52.464;13.446;2023-02-01T03:21:13;3.00;;;2.80;;
76788;SDS011;65740;52.464;13.446;2023-02-01T03:23:46;4.93;;;3.50;;
76788;SDS011;65740;52.464;13.446;2023-02-01T03:26:14;3.20;;;2.90;;
76788;SDS011;65740;52.464;13.446;2023-02-01T03:28:47;3.23;;;2.80;;
76788;SDS011;65740;52.464;13.446;2023-02-01T03:31:19;3.23;;;2.97;;
76788;SDS011;65740;52.464;13.446;2023-02-01T03:33:44;4.60;;;2.47;;
76788;SDS011;65740;52.464;13.446;2023-02-01T03:41:40;3.33;;;2.80;;
76788;SDS011;65740;52.464;13.446;2023-02-01T03:46:54;2.40;;;2.30;;
76788;SDS011;65740;52.464;13.446;2023-02-01T03:49:27;2.70;;;2.50;;
76788;SDS011;65740;52.464;13.446;2023-02-01T03:51:53;2.70;;;2.50;;
76788;SDS011;65740;52.464;13.446;2023-02-01T03:54:21;2.87;;;2.67;;
76788;SDS011;65740;52.464;13.446;2023-02-01T03:56:47;3.43;;;3.07;;
76788;SDS011;65740;52.464;13.446;2023-02-01T03:59:14;3.07;;;2.70;;
76788;SDS011;65740;52.464;13.446;2023-02-01T04:01:40;2.77;;;2.57;;
76788;SDS011;65740;52.464;13.446;2023-02-01T04:04:06;3.07;;;2.87;;
76788;SDS011;65740;52.464;13.446;2023-02-01T04:06:32;3.00;;;2.80;;
76788;SDS011;65740;52.464;13.446;2023-02-01T04:08:57;2.70;;;2.50;;
76788;SDS011;65740;52.464;13.446;2023-02-01T04:11:23;2.83;;;2.63;;
76788;SDS011;65740;52.464;13.446;2023-02-01T04:13:49;3.23;;;2.90;;
76788;SDS011;65740;52.464;13.446;2023-02-01T04:16:14;3.00;;;2.80;;
76788;SDS011;65740;52.464;13.446;2023-02-01T04:18:40;3.40;;;3.10;;
76788;SDS011;65740;52.464;13.446;2023-02-01T04:21:05;3.27;;;2.97;;
76788;SDS011;65740;52.464;13.446;2023-02-01T04:23:31;2.87;;;2.67;;
76788;SDS011;65740;52.464;13.446;2023-02-01T04:26:03;3.40;;;3.10;;
76788;SDS011;65740;52.464;13.446;2023-02-01T04:28:29;2.70;;;2.57;;
76788;SDS011;65740;52.464;13.446;2023-02-01T04:30:55;2.63;;;2.53;;
76788;SDS011;65740;52.464;13.446;2023-02-01T04:33:21;3.73;;;2.83;;
76788;SDS011;65740;52.464;13.446;2023-02-01T04:35:47;2.57;;;2.37;;
76788;SDS011;65740;52.464;13.446;2023-02-01T04:38:13;4.97;;;3.03;;
76788;SDS011;65740;52.464;13.446;2023-02-01T04:40:38;2.97;;;2.77;;
76788;SDS011;65740;52.464;13.446;2023-02-01T04:43:04;2.73;;;2.50;;
76788;SDS011;65740;52.464;13.446;2023-02-01T04:45:30;2.67;;;2.50;;
76788;SDS011;65740;52.464;13.446;2023-02-01T04:47:55;3.10;;;2.90;;
76788;SDS011;65740;52.464;13.446;2023-02-01T04:50:21;3.20;;;3.00;;
76788;SDS011;65740;52.464;13.446;2023-02-01T04:52:48;3.20;;;3.00;;
76788;SDS011;65740;52.464;13.446;2023-02-01T04:55:14;2.30;;;2.20;;
76788;SDS011;65740;52.464;13.446;2023-02-01T04:57:40;2.70;;;2.50;;
76788;SDS011;65740;52.464;13.446;2023-02-01T05:00:06;3.40;;;3.20;;
76788;SDS011;65740;52.464;13.446;2023-02-01T05:02:34;2.80;;;2.60;;
76788;SDS011;65740;52.464;13.446;2023-02-01T05:05:00;2.40;;;2.20;;
76788;SDS011;65740;52.464;13.446;2023-02-01T05:07:26;2.97;;;2.77;;
76788;SDS011;65740;52.464;13.446;2023-02-01T05:09:52;2.97;;;2.60;;
76788;SDS011;65740;52.464;13.446;2023-02-01T05:12:17;2.83;;;2.60;;
76788;SDS011;65740;52.464;13.446;2023-02-01T05:15:02;3.17;;;2.97;;
76788;SDS011;65740;52.464;13.446;2023-02-01T05:17:28;2.67;;;2.47;;
76788;SDS011;65740;52.464;13.446;2023-02-01T05:19:53;2.70;;;2.50;;
76788;SDS011;65740;52.464;13.446;2023-02-01T05:22:19;3.10;;;2.60;;
76788;SDS011;65740;52.464;13.446;2023-02-01T05:24:45;2.30;;;2.20;;
76788;SDS011;65740;52.464;13.446;2023-02-01T05:27:10;4.67;;;2.80;;
76788;SDS011;65740;52.464;13.446;2023-02-01T05:29:36;2.07;;;1.97;;
76788;SDS011;65740;52.464;13.446;2023-02-01T05:32:02;2.70;;;2.30;;
76788;SDS011;65740;52.464;13.446;2023-02-01T05:34:27;3.40;;;3.10;;
76788;SDS011;65740;52.464;13.446;2023-02-01T05:36:53;2.60;;;2.40;;
76788;SDS011;65740;52.464;13.446;2023-02-01T05:39:19;2.97;;;2.77;;
76788;SDS011;65740;52.464;13.446;2023-02-01T05:41:44;3.30;;;3.00;;
76788;SDS011;65740;52.464;13.446;2023-02-01T05:44:10;2.90;;;2.70;;
76788;SDS011;65740;52.464;13.446;2023-02-01T05:46:36;3.07;;;2.87;;
76788;SDS011;65740;52.464;13.446;2023-02-01T05:49:02;3.00;;;2.73;;
76788;SDS011;65740;52.464;13.446;2023-02-01T05:51:28;2.97;;;2.67;;
76788;SDS011;65740;52.464;13.446;2023-02-01T05:53:53;2.70;;;2.50;;
76788;SDS011;65740;52.464;13.446;2023-02-01T05:56:19;3.00;;;2.53;;
76788;SDS011;65740;52.464;13.446;2023-02-01T05:58:45;2.50;;;2.40;;
76788;SDS011;65740;52.464;13.446;2023-02-01T06:01:10;2.57;;;2.47;;
76788;SDS011;65740;52.464;13.446;2023-02-01T06:03:36;2.47;;;2.30;;
76788;SDS011;65740;52.464;13.446;2023-02-01T06:06:02;2.77;;;2.57;;
76788;SDS011;65740;52.464;13.446;2023-02-01T06:08:27;3.07;;;2.77;;
76788;SDS011;65740;52.464;13.446;2023-02-01T06:10:59;2.60;;;2.40;;
76788;SDS011;65740;52.464;13.446;2023-02-01T06:13:26;2.60;;;2.40;;
76788;SDS011;65740;52.464;13.446;2023-02-01T06:15:51;2.77;;;2.57;;
76788;SDS011;65740;52.464;13.446;2023-02-01T06:18:18;2.57;;;2.37;;
76788;SDS011;65740;52.464;13.446;2023-02-01T06:20:43;2.77;;;2.57;;
76788;SDS011;65740;52.464;13.446;2023-02-01T06:23:09;2.97;;;2.73;;
76788;SDS011;65740;52.464;13.446;2023-02-01T06:25:34;2.80;;;2.60;;
76788;SDS011;65740;52.464;13.446;2023-02-01T06:28:00;4.10;;;2.70;;
76788;SDS011;65740;52.464;13.446;2023-02-01T06:30:26;2.60;;;2.40;;
76788;SDS011;65740;52.464;13.446;2023-02-01T06:32:52;3.00;;;2.80;;
76788;SDS011;65740;52.464;13.446;2023-02-01T06:35:18;2.50;;;2.20;;
76788;SDS011;65740;52.464;13.446;2023-02-01T06:37:44;2.90;;;2.70;;
76788;SDS011;65740;52.464;13.446;2023-02-01T06:40:10;2.63;;;2.43;;
76788;SDS011;65740;52.464;13.446;2023-02-01T06:42:36;3.87;;;3.20;;
76788;SDS011;65740;52.464;13.446;2023-02-01T06:45:02;3.40;;;2.43;;
76788;SDS011;65740;52.464;13.446;2023-02-01T06:47:28;3.93;;;3.07;;
76788;SDS011;65740;52.464;13.446;2023-02-01T06:49:53;3.23;;;2.93;;
76788;SDS011;65740;52.464;13.446;2023-02-01T06:52:19;2.60;;;2.40;;
76788;SDS011;65740;52.464;13.446;2023-02-01T06:54:44;3.37;;;3.00;;
76788;SDS011;65740;52.464;13.446;2023-02-01T06:57:11;3.20;;;2.93;;
76788;SDS011;65740;52.464;13.446;2023-02-01T06:59:37;2.97;;;2.77;;
76788;SDS011;65740;52.464;13.446;2023-02-01T07:02:02;2.87;;;2.67;;
76788;SDS011;65740;52.464;13.446;2023-02-01T07:04:28;3.63;;;2.67;;
76788;SDS011;65740;52.464;13.446;2023-02-01T07:06:54;3.10;;;2.90;;
76788;SDS011;65740;52.464;13.446;2023-02-01T07:09:19;2.90;;;2.70;;
76788;SDS011;65740;52.464;13.446;2023-02-01T07:11:45;3.50;;;3.20;;
76788;SDS011;65740;52.464;13.446;2023-02-01T07:14:10;3.47;;;3.17;;
76788;SDS011;65740;52.464;13.446;2023-02-01T07:16:36;3.10;;;2.87;;
76788;SDS011;65740;52.464;13.446;2023-02-01T07:19:02;3.30;;;2.50;;
76788;SDS011;65740;52.464;13.446;2023-02-01T07:21:28;3.13;;;2.87;;
76788;SDS011;65740;52.464;13.446;2023-02-01T07:23:54;2.90;;;2.70;;
76788;SDS011;65740;52.464;13.446;2023-02-01T07:26:20;3.57;;;2.70;;
76788;SDS011;65740;52.464;13.446;2023-02-01T07:28:46;3.40;;;3.10;;
76788;SDS011;65740;52.464;13.446;2023-02-01T07:31:16;3.20;;;3.00;;
76788;SDS011;65740;52.464;13.446;2023-02-01T07:33:44;2.90;;;2.70;;
76788;SDS011;65740;52.464;13.446;2023-02-01T07:36:13;2.90;;;2.70;;
76788;SDS011;65740;52.464;13.446;2023-02-01T07:38:40;3.00;;;2.80;;
76788;SDS011;65740;52.464;13.446;2023-02-01T07:41:06;3.20;;;2.97;;
76788;SDS011;65740;52.464;13.446;2023-02-01T07:43:33;3.03;;;2.83;;
76788;SDS011;65740;52.464;13.446;2023-02-01T07:45:59;2.87;;;2.70;;
76788;SDS011;65740;52.464;13.446;2023-02-01T07:48:26;3.23;;;2.97;;
76788;SDS011;65740;52.464;13.446;2023-02-01T07:50:58;3.50;;;2.87;;
76788;SDS011;65740;52.464;13.446;2023-02-01T07:53:33;3.03;;;2.83;;
76788;SDS011;65740;52.464;13.446;2023-02-01T07:55:59;3.30;;;3.00;;
76788;SDS011;65740;52.464;13.446;2023-02-01T07:58:25;2.80;;;2.67;;
76788;SDS011;65740;52.464;13.446;2023-02-01T08:00:52;2.97;;;2.57;;
76788;SDS011;65740;52.464;13.446;2023-02-01T08:03:36;3.30;;;3.00;;
76788;SDS011;65740;52.464;13.446;2023-02-01T08:06:02;3.13;;;2.57;;
76788;SDS011;65740;52.464;13.446;2023-02-01T08:08:29;3.17;;;2.97;;
76788;SDS011;65740;52.464;13.446;2023-02-01T08:10:58;3.20;;;3.00;;
76788;SDS011;65740;52.464;13.446;2023-02-01T08:13:25;3.37;;;3.17;;
76788;SDS011;65740;52.464;13.446;2023-02-01T08:15:51;3.10;;;2.90;;
76788;SDS011;65740;52.464;13.446;2023-02-01T08:18:16;3.10;;;2.90;;
76788;SDS011;65740;52.464;13.446;2023-02-01T08:20:43;3.00;;;2.90;;
76788;SDS011;65740;52.464;13.446;2023-02-01T08:23:11;3.87;;;3.30;;
76788;SDS011;65740;52.464;13.446;2023-02-01T08:25:36;2.87;;;2.67;;
76788;SDS011;65740;52.464;13.446;2023-02-01T08:28:03;2.97;;;2.77;;
76788;SDS011;65740;52.464;13.446;2023-02-01T08:30:29;3.37;;;3.07;;
76788;SDS011;65740;52.464;13.446;2023-02-01T08:32:55;2.87;;;2.67;;
76788;SDS011;65740;52.464;13.446;2023-02-01T08:35:20;3.30;;;3.10;;
76788;SDS011;65740;52.464;13.446;2023-02-01T08:37:46;2.77;;;2.57;;
76788;SDS011;65740;52.464;13.446;2023-02-01T08:40:11;3.50;;;3.20;;
76788;SDS011;65740;52.464;13.446;2023-02-01T08:42:38;2.93;;;2.70;;
76788;SDS011;65740;52.464;13.446;2023-02-01T08:45:26;2.80;;;2.60;;
76788;SDS011;65740;52.464;13.446;2023-02-01T08:47:54;2.93;;;2.73;;
76788;SDS011;65740;52.464;13.446;2023-02-01T08:50:21;2.97;;;2.73;;
76788;SDS011;65740;52.464;13.446;2023-02-01T08:52:47;2.53;;;2.43;;
76788;SDS011;65740;52.464;13.446;2023-02-01T08:55:13;3.03;;;2.83;;
76788;SDS011;65740;52.464;13.446;2023-02-01T08:57:39;2.97;;;2.77;;
76788;SDS011;65740;52.464;13.446;2023-02-01T09:00:07;2.67;;;2.47;;
76788;SDS011;65740;52.464;13.446;2023-02-01T09:02:35;3.00;;;2.80;;
76788;SDS011;65740;52.464;13.446;2023-02-01T09:05:01;2.77;;;2.57;;
76788;SDS011;65740;52.464;13.446;2023-02-01T09:07:27;3.00;;;2.80;;
76788;SDS011;65740;52.464;13.446;2023-02-01T09:09:52;3.10;;;2.90;;
76788;SDS011;65740;52.464;13.446;2023-02-01T09:12:19;2.93;;;2.63;;
76788;SDS011;65740;52.464;13.446;2023-02-01T09:14:45;3.40;;;3.20;;
76788;SDS011;65740;52.464;13.446;2023-02-01T09:17:11;3.00;;;2.70;;
76788;SDS011;65740;52.464;13.446;2023-02-01T09:19:38;2.93;;;2.63;;
76788;SDS011;65740;52.464;13.446;2023-02-01T09:22:04;2.90;;;2.70;;
76788;SDS011;65740;52.464;13.446;2023-02-01T09:24:29;3.20;;;3.00;;
76788;SDS011;65740;52.464;13.446;2023-02-01T09:26:55;2.67;;;2.47;;
76788;SDS011;65740;52.464;13.446;2023-02-01T09:29:21;5.13;;;2.67;;
76788;SDS011;65740;52.464;13.446;2023-02-01T09:31:46;3.50;;;3.20;;
76788;SDS011;65740;52.464;13.446;2023-02-01T09:34:12;2.50;;;2.30;;
76788;SDS011;65740;52.464;13.446;2023-02-01T09:36:38;2.77;;;2.40;;
76788;SDS011;65740;52.464;13.446;2023-02-01T09:39:04;3.37;;;2.70;;
76788;SDS011;65740;52.464;13.446;2023-02-01T09:41:35;3.17;;;2.97;;
76788;SDS011;65740;52.464;13.446;2023-02-01T09:47:28;2.70;;;2.50;;
76788;SDS011;65740;52.464;13.446;2023-02-01T09:49:56;3.10;;;2.53;;
76788;SDS011;65740;52.464;13.446;2023-02-01T09:52:40;4.13;;;3.10;;
76788;SDS011;65740;52.464;13.446;2023-02-01T09:55:13;3.90;;;2.90;;
76788;SDS011;65740;52.464;13.446;2023-02-01T09:57:58;3.57;;;3.27;;
76788;SDS011;65740;52.464;13.446;2023-02-01T10:00:29;4.03;;;3.00;;
76788;SDS011;65740;52.464;13.446;2023-02-01T10:03:00;4.37;;;2.90;;
76788;SDS011;65740;52.464;13.446;2023-02-01T10:05:48;4.10;;;2.40;;
76788;SDS011;65740;52.464;13.446;2023-02-01T10:08:32;4.10;;;3.17;;
76788;SDS011;65740;52.464;13.446;2023-02-01T10:11:27;4.13;;;2.60;;
76788;SDS011;65740;52.464;13.446;2023-02-01T10:16:47;4.97;;;2.53;;
76788;SDS011;65740;52.464;13.446;2023-02-01T10:22:05;3.30;;;2.80;;
76788;SDS011;65740;52.464;13.446;2023-02-01T10:29:52;5.87;;;2.53;;
76788;SDS011;65740;52.464;13.446;2023-02-01T10:32:22;2.93;;;2.60;;
76788;SDS011;65740;52.464;13.446;2023-02-01T10:34:55;2.30;;;2.20;;
76788;SDS011;65740;52.464;13.446;2023-02-01T10:37:32;3.87;;;3.20;;
76788;SDS011;65740;52.464;13.446;2023-02-01T10:40:21;2.70;;;2.50;;
76788;SDS011;65740;52.464;13.446;2023-02-01T10:42:47;4.80;;;2.47;;
76788;SDS011;65740;52.464;13.446;2023-02-01T10:45:17;3.73;;;2.73;;
76788;SDS011;65740;52.464;13.446;2023-02-01T10:47:45;2.70;;;2.50;;
76788;SDS011;65740;52.464;13.446;2023-02-01T10:50:16;2.97;;;2.57;;
76788;SDS011;65740;52.464;13.446;2023-02-01T10:52:59;3.40;;;2.77;;
76788;SDS011;65740;52.464;13.446;2023-02-01T10:55:33;2.83;;;2.60;;
76788;SDS011;65740;52.464;13.446;2023-02-01T10:58:15;3.27;;;3.07;;
76788;SDS011;65740;52.464;13.446;2023-02-01T11:00:47;2.93;;;2.73;;
76788;SDS011;65740;52.464;13.446;2023-02-01T11:03:21;2.70;;;2.50;;
76788;SDS011;65740;52.464;13.446;2023-02-01T11:06:02;7.00;;;3.00;;
76788;SDS011;65740;52.464;13.446;2023-02-01T11:08:41;3.00;;;2.70;;
76788;SDS011;65740;52.464;13.446;2023-02-01T11:11:09;2.63;;;2.43;;
76788;SDS011;65740;52.464;13.446;2023-02-01T11:13:37;4.33;;;2.73;;
76788;SDS011;65740;52.464;13.446;2023-02-01T11:16:04;3.50;;;2.80;;
76788;SDS011;65740;52.464;13.446;2023-02-01T11:18:31;2.80;;;2.60;;
76788;SDS011;65740;52.464;13.446;2023-02-01T11:21:01;3.00;;;2.80;;
76788;SDS011;65740;52.464;13.446;2023-02-01T11:23:27;3.63;;;3.33;;
76788;SDS011;65740;52.464;13.446;2023-02-01T11:28:32;3.67;;;3.10;;
76788;SDS011;65740;52.464;13.446;2023-02-01T11:31:01;4.53;;;2.77;;
76788;SDS011;65740;52.464;13.446;2023-02-01T11:33:32;3.87;;;3.10;;
76788;SDS011;65740;52.464;13.446;2023-02-01T11:36:05;3.27;;;2.97;;
76788;SDS011;65740;52.464;13.446;2023-02-01T11:38:33;3.10;;;2.80;;
76788;SDS011;65740;52.464;13.446;2023-02-01T11:44:15;3.33;;;3.03;;
76788;SDS011;65740;52.464;13.446;2023-02-01T11:46:47;4.17;;;2.93;;
76788;SDS011;65740;52.464;13.446;2023-02-01T11:49:24;3.70;;;3.20;;
76788;SDS011;65740;52.464;13.446;2023-02-01T12:00:10;3.13;;;2.83;;
76788;SDS011;65740;52.464;13.446;2023-02-01T12:05:39;4.77;;;3.60;;
76788;SDS011;65740;52.464;13.446;2023-02-01T12:08:44;5.67;;;2.80;;
76788;SDS011;65740;52.464;13.446;2023-02-01T12:14:01;4.03;;;3.00;;
76788;SDS011;65740;52.464;13.446;2023-02-01T12:24:19;2.83;;;2.70;;
76788;SDS011;65740;52.464;13.446;2023-02-01T12:32:22;3.47;;;3.17;;
76788;SDS011;65740;52.464;13.446;2023-02-01T12:43:26;4.17;;;3.27;;
76788;SDS011;65740;52.464;13.446;2023-02-01T12:46:02;7.60;;;3.07;;
76788;SDS011;65740;52.464;13.446;2023-02-01T12:49:04;5.37;;;3.40;;
76788;SDS011;65740;52.464;13.446;2023-02-01T12:51:37;4.07;;;3.67;;
76788;SDS011;65740;52.464;13.446;2023-02-01T12:59:16;4.10;;;3.00;;
76788;SDS011;65740;52.464;13.446;2023-02-01T13:01:46;3.30;;;3.10;;
76788;SDS011;65740;52.464;13.446;2023-02-01T13:07:19;4.33;;;3.23;;
76788;SDS011;65740;52.464;13.446;2023-02-01T13:09:55;4.57;;;2.50;;
76788;SDS011;65740;52.464;13.446;2023-02-01T13:12:34;3.53;;;3.23;;
76788;SDS011;65740;52.464;13.446;2023-02-01T13:17:54;4.67;;;3.50;;
76788;SDS011;65740;52.464;13.446;2023-02-01T13:23:21;5.90;;;3.60;;
76788;SDS011;65740;52.464;13.446;2023-02-01T13:25:51;3.57;;;3.27;;
76788;SDS011;65740;52.464;13.446;2023-02-01T13:28:28;6.07;;;3.27;;
76788;SDS011;65740;52.464;13.446;2023-02-01T13:42:27;5.77;;;2.80;;
76788;SDS011;65740;52.464;13.446;2023-02-01T13:45:01;4.20;;;3.53;;
76788;SDS011;65740;52.464;13.446;2023-02-01T13:47:35;3.37;;;3.07;;
76788;SDS011;65740;52.464;13.446;2023-02-01T13:52:44;5.63;;;3.40;;
76788;SDS011;65740;52.464;13.446;2023-02-01T13:57:46;5.30;;;3.90;;
76788;SDS011;65740;52.464;13.446;2023-02-01T14:24:16;4.60;;;3.37;;
76788;SDS011;65740;52.464;13.446;2023-02-01T14:34:50;3.70;;;3.40;;
76788;SDS011;65740;52.464;13.446;2023-02-01T14:39:54;4.40;;;2.60;;
76788;SDS011;65740;52.464;13.446;2023-02-01T14:42:27;7.87;;;3.60;;
76788;SDS011;65740;52.464;13.446;2023-02-01T15:00:59;4.73;;;3.20;;
76788;SDS011;65740;52.464;13.446;2023-02-01T15:03:33;5.50;;;3.37;;
76788;SDS011;65740;52.464;13.446;2023-02-01T15:06:03;3.53;;;3.07;;
76788;SDS011;65740;52.464;13.446;2023-02-01T15:08:35;5.57;;;3.27;;
76788;SDS011;65740;52.464;13.446;2023-02-01T15:11:06;3.23;;;2.73;;
76788;SDS011;65740;52.464;13.446;2023-02-01T15:13:38;11.20;;;3.83;;
76788;SDS011;65740;52.464;13.446;2023-02-01T15:16:07;4.07;;;3.37;;
76788;SDS011;65740;52.464;13.446;2023-02-01T15:18:36;3.80;;;3.50;;
76788;SDS011;65740;52.464;13.446;2023-02-01T15:21:03;4.23;;;3.07;;
76788;SDS011;65740;52.464;13.446;2023-02-01T15:23:30;3.80;;;2.90;;
76788;SDS011;65740;52.464;13.446;2023-02-01T15:25:57;4.13;;;3.13;;
76788;SDS011;65740;52.464;13.446;2023-02-01T15:28:24;6.23;;;3.50;;
76788;SDS011;65740;52.464;13.446;2023-02-01T15:31:01;3.70;;;3.33;;
76788;SDS011;65740;52.464;13.446;2023-02-01T15:33:29;4.20;;;3.13;;
76788;SDS011;65740;52.464;13.446;2023-02-01T15:38:36;3.57;;;2.97;;
76788;SDS011;65740;52.464;13.446;2023-02-01T15:46:15;4.00;;;3.07;;
76788;SDS011;65740;52.464;13.446;2023-02-01T15:48:49;4.77;;;2.57;;
76788;SDS011;65740;52.464;13.446;2023-02-01T15:51:22;2.87;;;2.67;;
76788;SDS011;65740;52.464;13.446;2023-02-01T15:53:57;6.20;;;3.47;;
76788;SDS011;65740;52.464;13.446;2023-02-01T15:56:28;2.80;;;2.60;;
76788;SDS011;65740;52.464;13.446;2023-02-01T15:58:59;4.80;;;2.87;;
76788;SDS011;65740;52.464;13.446;2023-02-01T16:01:27;3.23;;;3.03;;
76788;SDS011;65740;52.464;13.446;2023-02-01T16:04:04;3.67;;;2.83;;
76788;SDS011;65740;52.464;13.446;2023-02-01T16:06:50;3.00;;;2.80;;
76788;SDS011;65740;52.464;13.446;2023-02-01T16:09:36;2.63;;;2.43;;
76788;SDS011;65740;52.464;13.446;2023-02-01T16:12:17;3.70;;;3.40;;
76788;SDS011;65740;52.464;13.446;2023-02-01T16:15:01;4.10;;;2.70;;
76788;SDS011;65740;52.464;13.446;2023-02-01T16:17:27;3.70;;;3.37;;
76788;SDS011;65740;52.464;13.446;2023-02-01T16:19:53;3.90;;;3.23;;
76788;SDS011;65740;52.464;13.446;2023-02-01T16:22:19;5.50;;;3.40;;
76788;SDS011;65740;52.464;13.446;2023-02-01T16:24:44;6.37;;;4.60;;
76788;SDS011;65740;52.464;13.446;2023-02-01T16:27:10;4.63;;;4.33;;
76788;SDS011;65740;52.464;13.446;2023-02-01T16:29:36;4.03;;;3.63;;
76788;SDS011;65740;52.464;13.446;2023-02-01T16:32:01;6.27;;;4.80;;
76788;SDS011;65740;52.464;13.446;2023-02-01T16:34:28;6.37;;;4.43;;
76788;SDS011;65740;52.464;13.446;2023-02-01T16:36:54;7.33;;;4.03;;
76788;SDS011;65740;52.464;13.446;2023-02-01T16:39:22;6.50;;;4.50;;
76788;SDS011;65740;52.464;13.446;2023-02-01T16:41:48;7.10;;;4.00;;
76788;SDS011;65740;52.464;13.446;2023-02-01T16:44:14;4.87;;;4.23;;
76788;SDS011;65740;52.464;13.446;2023-02-01T16:46:41;6.57;;;4.07;;
76788;SDS011;65740;52.464;13.446;2023-02-01T16:49:19;4.30;;;3.30;;
76788;SDS011;65740;52.464;13.446;2023-02-01T16:51:47;4.03;;;3.73;;
76788;SDS011;65740;52.464;13.446;2023-02-01T16:54:15;3.67;;;3.37;;
76788;SDS011;65740;52.464;13.446;2023-02-01T16:56:41;5.83;;;3.87;;
76788;SDS011;65740;52.464;13.446;2023-02-01T16:59:09;4.07;;;3.77;;
76788;SDS011;65740;52.464;13.446;2023-02-01T17:01:36;5.70;;;4.10;;
76788;SDS011;65740;52.464;13.446;2023-02-01T17:04:07;4.47;;;4.07;;
76788;SDS011;65740;52.464;13.446;2023-02-01T17:06:34;5.50;;;4.00;;
76788;SDS011;65740;52.464;13.446;2023-02-01T17:09:01;4.40;;;4.00;;
76788;SDS011;65740;52.464;13.446;2023-02-01T17:11:28;4.33;;;4.03;;
76788;SDS011;65740;52.464;13.446;2023-02-01T17:16:56;4.17;;;3.87;;
76788;SDS011;65740;52.464;13.446;2023-02-01T17:19:22;4.33;;;3.80;;
76788;SDS011;65740;52.464;13.446;2023-02-01T17:21:49;5.83;;;3.50;;
76788;SDS011;65740;52.464;13.446;2023-02-01T17:24:18;4.10;;;3.60;;
76788;SDS011;65740;52.464;13.446;2023-02-01T17:26:45;3.70;;;3.37;;
76788;SDS011;65740;52.464;13.446;2023-02-01T17:29:11;3.83;;;3.53;;
76788;SDS011;65740;52.464;13.446;2023-02-01T17:31:43;3.83;;;3.53;;
76788;SDS011;65740;52.464;13.446;2023-02-01T17:34:11;3.90;;;3.60;;
76788;SDS011;65740;52.464;13.446;2023-02-01T17:36:39;3.77;;;3.47;;
76788;SDS011;65740;52.464;13.446;2023-02-01T17:39:06;4.23;;;3.53;;
76788;SDS011;65740;52.464;13.446;2023-02-01T17:41:33;3.37;;;3.10;;
76788;SDS011;65740;52.464;13.446;2023-02-01T17:43:59;4.80;;;3.80;;
76788;SDS011;65740;52.464;13.446;2023-02-01T17:46:25;5.80;;;3.23;;
76788;SDS011;65740;52.464;13.446;2023-02-01T17:48:52;3.50;;;3.20;;
76788;SDS011;65740;52.464;13.446;2023-02-01T17:51:22;3.83;;;3.53;;
76788;SDS011;65740;52.464;13.446;2023-02-01T17:53:51;3.30;;;3.10;;
76788;SDS011;65740;52.464;13.446;2023-02-01T17:56:17;3.37;;;3.07;;
76788;SDS011;65740;52.464;13.446;2023-02-01T17:58:45;4.43;;;3.47;;